Time;durP1;ratioP1;P1;durP2;ratioP2;P2;SDS_P1;SDS_P2;PMS_P1;PMS_P2;Temp;Humidity;BMP_temperature;BMP_pressure;BME280_temperature;BME280_humidity;BME280_pressure;Samples;Min_cycle;Max_cycle;Signal;HPM_P1;HPM_P2
2022/07/17 00:02:51;;;;;;;4.75;2.38;;;;;;;;;;5111428;27;20392;-71
2022/07/17 00:05:17;;;;;;;4.72;2.15;;;;;;;;;;5110122;28;20027;-72
2022/07/17 00:07:44;;;;;;;4.55;2.10;;;;;;;;;;5111380;28;20027;-72
2022/07/17 00:10:10;;;;;;;4.50;2.30;;;;;;;;;;5109601;28;20441;-71
2022/07/17 00:12:36;;;;;;;6.57;2.67;;;;;;;;;;5111527;28;20054;-72
2022/07/17 00:15:03;;;;;;;5.13;2.67;;;;;;;;;;5109978;28;20026;-71
2022/07/17 00:17:29;;;;;;;5.60;2.25;;;;;;;;;;5109473;28;20024;-71
2022/07/17 00:19:55;;;;;;;7.55;2.55;;;;;;;;;;5111453;28;20387;-71
2022/07/17 00:22:21;;;;;;;5.85;2.10;;;;;;;;;;5111061;28;20035;-71
2022/07/17 00:24:47;;;;;;;6.43;2.25;;;;;;;;;;5110687;28;20012;-71
2022/07/17 00:27:14;;;;;;;4.00;1.92;;;;;;;;;;5111194;28;20035;-72
2022/07/17 00:31:47;;;;;;;5.78;2.35;;;;;;;;;;5111167;27;20941;-71
2022/07/17 00:34:13;;;;;;;5.10;2.42;;;;;;;;;;5127248;28;20024;-72
2022/07/17 00:40:38;;;;;;;7.57;2.33;;;;;;;;;;5111607;27;20396;-71
2022/07/17 00:45:39;;;;;;;5.35;2.50;;;;;;;;;;5173260;27;20114;-71
2022/07/17 00:48:06;;;;;;;4.75;2.00;;;;;;;;;;5152602;27;20073;-71
2022/07/17 00:50:34;;;;;;;3.08;1.88;;;;;;;;;;5152626;27;20023;-71
2022/07/17 00:53:00;;;;;;;4.25;2.30;;;;;;;;;;5152115;27;20023;-71
2022/07/17 00:55:26;;;;;;;6.88;2.50;;;;;;;;;;5152414;27;20023;-71
2022/07/17 00:57:54;;;;;;;4.45;2.28;;;;;;;;;;5152765;27;20027;-71
2022/07/17 01:00:20;;;;;;;4.65;2.00;;;;;;;;;;5152155;27;20029;-71
2022/07/17 01:02:47;;;;;;;5.50;2.33;;;;;;;;;;5134047;27;20026;-71
2022/07/17 01:05:14;;;;;;;5.90;2.40;;;;;;;;;;5151828;27;20088;-71
2022/07/17 01:07:40;;;;;;;6.13;2.50;;;;;;;;;;5152206;27;20088;-71
2022/07/17 01:10:06;;;;;;;3.92;2.63;;;;;;;;;;5152169;27;20023;-71
2022/07/17 01:12:33;;;;;;;5.30;2.08;;;;;;;;;;5133183;27;20106;-71
2022/07/17 01:15:00;;;;;;;4.47;2.38;;;;;;;;;;5152350;27;20107;-71
2022/07/17 01:17:26;;;;;;;7.43;4.03;;;;;;;;;;5151988;27;20050;-71
2022/07/17 01:19:52;;;;;;;6.60;2.08;;;;;;;;;;5132925;27;20023;-71
2022/07/17 01:22:19;;;;;;;4.18;2.00;;;;;;;;;;5151968;27;20019;-72
2022/07/17 01:24:46;;;;;;;5.93;2.53;;;;;;;;;;5152028;27;20031;-71
2022/07/17 01:27:12;;;;;;;3.65;2.03;;;;;;;;;;5132919;27;20027;-71
2022/07/17 01:30:37;;;;;;;3.05;1.80;;;;;;;;;;5111913;27;20112;-71
2022/07/17 01:33:04;;;;;;;4.35;2.40;;;;;;;;;;5109897;28;20019;-71
2022/07/17 01:36:55;;;;;;;3.00;2.10;;;;;;;;;;5091672;27;20796;-71
2022/07/17 01:42:09;;;;;;;3.42;2.10;;;;;;;;;;5090769;28;20039;-71
2022/07/17 01:44:37;;;;;;;5.55;2.40;;;;;;;;;;5090814;28;20194;-72
2022/07/17 01:47:04;;;;;;;5.40;1.88;;;;;;;;;;5090825;28;20044;-71
2022/07/17 01:53:55;;;;;;;4.18;1.98;;;;;;;;;;5111987;27;20741;-72
2022/07/17 01:56:31;;;;;;;3.92;1.98;;;;;;;;;;5111071;27;20888;-71
2022/07/17 01:58:57;;;;;;;4.28;2.20;;;;;;;;;;5110143;28;20491;-71
2022/07/17 02:02:11;;;;;;;5.63;2.13;;;;;;;;;;5111159;27;20485;-72
2022/07/17 02:04:38;;;;;;;2.72;1.60;;;;;;;;;;5127165;28;20024;-71
2022/07/17 02:07:05;;;;;;;3.42;1.90;;;;;;;;;;5127135;28;20024;-71
2022/07/17 02:09:31;;;;;;;4.28;2.10;;;;;;;;;;5110943;28;20016;-71
2022/07/17 02:14:56;;;;;;;3.63;2.25;;;;;;;;;;5111904;27;20830;-71
2022/07/17 02:17:23;;;;;;;3.75;1.95;;;;;;;;;;5110978;28;20035;-71
2022/07/17 02:19:49;;;;;;;4.88;1.63;;;;;;;;;;5111361;28;20392;-71
2022/07/17 02:22:15;;;;;;;4.10;1.88;;;;;;;;;;5111247;28;20031;-71
2022/07/17 02:27:44;;;;;;;4.22;1.85;;;;;;;;;;5111955;27;20426;-71
2022/07/17 02:30:12;;;;;;;4.18;2.10;;;;;;;;;;5110961;28;20032;-71
2022/07/17 02:32:38;;;;;;;4.60;1.90;;;;;;;;;;5110012;28;20387;-71
2022/07/17 02:35:05;;;;;;;3.38;1.88;;;;;;;;;;5111279;28;20024;-71
2022/07/17 02:37:32;;;;;;;3.75;1.90;;;;;;;;;;5111102;28;20032;-72
2022/07/17 02:39:58;;;;;;;3.58;1.73;;;;;;;;;;5111152;28;20031;-71
2022/07/17 02:42:25;;;;;;;4.05;2.10;;;;;;;;;;5111421;28;20046;-72
2022/07/17 02:45:08;;;;;;;2.83;1.58;;;;;;;;;;5111289;27;20446;-71
2022/07/17 02:47:35;;;;;;;3.83;2.13;;;;;;;;;;5111437;28;20114;-71
2022/07/17 02:50:01;;;;;;;3.40;1.77;;;;;;;;;;5111297;28;20016;-71
2022/07/17 02:52:28;;;;;;;4.07;1.65;;;;;;;;;;5109625;28;20024;-71
2022/07/17 02:54:54;;;;;;;5.30;2.22;;;;;;;;;;5111753;28;20425;-71
2022/07/17 02:57:20;;;;;;;4.28;2.10;;;;;;;;;;5111439;28;20027;-71
2022/07/17 02:59:47;;;;;;;5.20;1.95;;;;;;;;;;5110758;28;20024;-71
2022/07/17 03:02:13;;;;;;;2.95;1.88;;;;;;;;;;5111229;28;20024;-72
2022/07/17 03:05:47;;;;;;;4.95;2.20;;;;;;;;;;5111067;27;20829;-72
2022/07/17 03:08:13;;;;;;;3.95;2.00;;;;;;;;;;5111353;28;20063;-71
2022/07/17 03:10:39;;;;;;;3.45;1.88;;;;;;;;;;5111441;28;20031;-72
2022/07/17 03:14:25;;;;;;;6.50;2.00;;;;;;;;;;5111586;27;20420;-71
2022/07/17 03:17:17;;;;;;;7.00;2.63;;;;;;;;;;5111666;27;20454;-72
2022/07/17 03:19:43;;;;;;;4.03;1.80;;;;;;;;;;5109760;28;20047;-71
2022/07/17 03:22:09;;;;;;;4.13;1.88;;;;;;;;;;5111304;28;20031;-71
2022/07/17 03:24:36;;;;;;;5.75;2.20;;;;;;;;;;5111347;28;20028;-71
2022/07/17 03:27:02;;;;;;;4.93;1.95;;;;;;;;;;5110828;28;20027;-71
2022/07/17 03:29:28;;;;;;;3.67;2.00;;;;;;;;;;5111202;28;20020;-71
2022/07/17 03:33:21;;;;;;;12.85;2.03;;;;;;;;;;5111468;27;20463;-71
2022/07/17 03:35:47;;;;;;;4.32;1.95;;;;;;;;;;5110094;28;20038;-71
2022/07/17 03:38:22;;;;;;;4.13;1.85;;;;;;;;;;5111598;27;20400;-72
2022/07/17 03:42:29;;;;;;;4.05;2.10;;;;;;;;;;5112179;27;20466;-72
2022/07/17 03:46:27;;;;;;;4.00;1.88;;;;;;;;;;5111732;27;20121;-71
2022/07/17 03:50:14;;;;;;;2.92;1.83;;;;;;;;;;5111702;27;20393;-72
2022/07/17 03:52:41;;;;;;;2.80;1.75;;;;;;;;;;5111389;28;20031;-71
2022/07/17 03:55:07;;;;;;;3.80;2.00;;;;;;;;;;5110898;28;20016;-72
2022/07/17 03:59:23;;;;;;;3.53;1.65;;;;;;;;;;5111627;27;20896;-71
2022/07/17 04:02:04;;;;;;;2.55;1.70;;;;;;;;;;5111441;27;20408;-72
2022/07/17 04:04:43;;;;;;;2.85;1.73;;;;;;;;;;5111724;27;20447;-72
2022/07/17 04:07:26;;;;;;;2.97;1.60;;;;;;;;;;5111350;28;20024;-71
2022/07/17 04:11:27;;;;;;;4.28;1.92;;;;;;;;;;5111625;27;20454;-72
2022/07/17 04:13:53;;;;;;;4.55;1.90;;;;;;;;;;5111342;28;20039;-71
2022/07/17 04:16:19;;;;;;;4.30;2.10;;;;;;;;;;5111205;28;20408;-71
2022/07/17 04:18:46;;;;;;;4.45;1.90;;;;;;;;;;5109996;28;20418;-71
2022/07/17 04:21:13;;;;;;;2.83;1.73;;;;;;;;;;5111229;28;20050;-71
2022/07/17 04:23:39;;;;;;;3.15;1.80;;;;;;;;;;5110888;28;20023;-72
2022/07/17 04:26:09;;;;;;;6.03;1.90;;;;;;;;;;5111273;28;20024;-72
2022/07/17 04:31:51;;;;;;;4.47;2.00;;;;;;;;;;5111772;27;20427;-72
2022/07/17 04:34:18;;;;;;;3.13;2.00;;;;;;;;;;5111357;28;20036;-71
2022/07/17 04:37:47;;;;;;;3.25;2.00;;;;;;;;;;5111083;27;20385;-71
2022/07/17 04:40:14;;;;;;;5.57;2.10;;;;;;;;;;5111377;28;20023;-72
2022/07/17 04:43:26;;;;;;;4.50;2.00;;;;;;;;;;5111750;27;20392;-72
2022/07/17 04:45:52;;;;;;;3.65;1.95;;;;;;;;;;5111678;28;20493;-72
2022/07/17 04:49:23;;;;;;;4.70;2.10;;;;;;;;;;5112117;27;20424;-72
2022/07/17 04:52:37;;;;;;;6.70;1.73;;;;;;;;;;5111999;27;20451;-71
2022/07/17 04:56:41;;;;;;;3.15;2.00;;;;;;;;;;5111578;27;20473;-72
2022/07/17 05:01:08;;;;;;;5.75;1.83;;;;;;;;;;5112039;27;20474;-72
2022/07/17 05:03:34;;;;;;;5.05;2.08;;;;;;;;;;5110064;28;20026;-71
2022/07/17 05:06:00;;;;;;;2.78;1.90;;;;;;;;;;5110991;28;20031;-71
2022/07/17 05:08:26;;;;;;;4.90;1.92;;;;;;;;;;5110006;28;20050;-71
2022/07/17 05:10:52;;;;;;;5.07;2.10;;;;;;;;;;5109930;28;20080;-72
2022/07/17 05:13:19;;;;;;;6.00;1.90;;;;;;;;;;5109450;28;20051;-71
2022/07/17 05:15:45;;;;;;;3.50;2.20;;;;;;;;;;5109897;28;20028;-71
2022/07/17 05:18:11;;;;;;;5.47;2.13;;;;;;;;;;5110646;28;20016;-71
2022/07/17 05:21:20;;;;;;;4.93;1.77;;;;;;;;;;5111677;27;20442;-71
2022/07/17 05:23:46;;;;;;;2.70;1.90;;;;;;;;;;5111396;28;20428;-72
2022/07/17 05:26:33;;;;;;;4.93;2.03;;;;;;;;;;5111367;27;20484;-71
2022/07/17 05:28:59;;;;;;;4.60;1.77;;;;;;;;;;5111326;28;20031;-72
2022/07/17 05:31:25;;;;;;;5.93;2.10;;;;;;;;;;5111710;28;20032;-72
2022/07/17 05:36:02;;;;;;;4.00;2.08;;;;;;;;;;5111458;27;20420;-72
2022/07/17 05:38:28;;;;;;;3.60;2.00;;;;;;;;;;5111424;28;20103;-72
2022/07/17 05:40:54;;;;;;;5.70;2.30;;;;;;;;;;5111528;28;20016;-72
2022/07/17 05:45:12;;;;;;;5.10;2.42;;;;;;;;;;5111403;27;20397;-71
2022/07/17 05:47:38;;;;;;;4.93;1.73;;;;;;;;;;5111010;28;20027;-72
2022/07/17 05:50:04;;;;;;;2.58;1.77;;;;;;;;;;5111313;28;20525;-71
2022/07/17 05:52:30;;;;;;;3.58;1.80;;;;;;;;;;5111358;28;20027;-71
2022/07/17 05:56:04;;;;;;;4.50;1.70;;;;;;;;;;5111565;27;20458;-71
2022/07/17 05:58:30;;;;;;;3.97;1.90;;;;;;;;;;5111357;28;20111;-71
2022/07/17 06:03:01;;;;;;;6.00;2.03;;;;;;;;;;5111425;27;20384;-71
2022/07/17 06:05:28;;;;;;;4.50;1.88;;;;;;;;;;5111482;28;20035;-71
2022/07/17 06:07:54;;;;;;;2.88;2.05;;;;;;;;;;5110895;28;20042;-71
2022/07/17 06:10:20;;;;;;;4.03;2.10;;;;;;;;;;5111289;28;20106;-71
2022/07/17 06:12:47;;;;;;;6.15;2.20;;;;;;;;;;5111533;28;20063;-71
2022/07/17 06:15:13;;;;;;;5.43;2.22;;;;;;;;;;5110909;28;20047;-71
2022/07/17 06:17:39;;;;;;;3.90;2.10;;;;;;;;;;5111098;28;20196;-73
2022/07/17 06:23:55;;;;;;;6.00;2.33;;;;;;;;;;5111356;27;20996;-71
2022/07/17 06:26:21;;;;;;;7.63;1.98;;;;;;;;;;5111410;28;20055;-71
2022/07/17 06:30:51;;;;;;;6.75;2.03;;;;;;;;;;5173076;27;20114;-72
2022/07/17 06:34:36;;;;;;;4.65;2.10;;;;;;;;;;5112083;27;20454;-72
2022/07/17 06:37:02;;;;;;;7.25;2.45;;;;;;;;;;5110972;28;20535;-71
2022/07/17 06:39:29;;;;;;;6.32;2.35;;;;;;;;;;5111240;28;20016;-72
2022/07/17 06:41:55;;;;;;;3.15;1.70;;;;;;;;;;5111359;28;20054;-72
2022/07/17 06:44:21;;;;;;;6.78;2.53;;;;;;;;;;5126632;28;20034;-72
2022/07/17 06:46:47;;;;;;;5.60;2.05;;;;;;;;;;5111158;28;20028;-72
2022/07/17 06:49:13;;;;;;;5.47;1.85;;;;;;;;;;5111182;28;20028;-72
2022/07/17 06:54:04;;;;;;;5.82;2.40;;;;;;;;;;5111565;27;20462;-72
2022/07/17 06:56:59;;;;;;;5.95;1.85;;;;;;;;;;5091533;27;20450;-73
2022/07/17 06:59:25;;;;;;;3.88;2.00;;;;;;;;;;5091006;28;20074;-73
2022/07/17 07:02:23;;;;;;;4.40;1.90;;;;;;;;;;5111768;27;20416;-72
2022/07/17 07:06:24;;;;;;;5.32;1.70;;;;;;;;;;5111368;27;20903;-72
2022/07/17 07:08:50;;;;;;;4.82;2.00;;;;;;;;;;5111261;28;20073;-72
2022/07/17 07:11:16;;;;;;;3.47;1.83;;;;;;;;;;5110890;28;20028;-71
2022/07/17 07:13:42;;;;;;;3.30;1.90;;;;;;;;;;5109927;28;20028;-72
2022/07/17 07:17:13;;;;;;;2.83;1.55;;;;;;;;;;5111666;27;20397;-72
2022/07/17 07:19:39;;;;;;;4.55;2.33;;;;;;;;;;5109710;28;20024;-72
2022/07/17 07:22:05;;;;;;;5.07;1.90;;;;;;;;;;5111318;28;20024;-72
2022/07/17 07:24:31;;;;;;;7.60;2.03;;;;;;;;;;5111310;28;20024;-72
2022/07/17 07:26:57;;;;;;;3.45;2.00;;;;;;;;;;5110824;28;20434;-72
2022/07/17 07:29:23;;;;;;;4.35;2.10;;;;;;;;;;5111211;28;20028;-72
2022/07/17 07:31:49;;;;;;;4.72;1.90;;;;;;;;;;5111244;28;20424;-72
2022/07/17 07:34:16;;;;;;;5.70;2.13;;;;;;;;;;5110701;28;20020;-73
2022/07/17 07:36:42;;;;;;;4.32;1.80;;;;;;;;;;5111038;28;20391;-73
2022/07/17 07:39:08;;;;;;;4.78;2.15;;;;;;;;;;5110625;28;20016;-73
2022/07/17 07:43:10;;;;;;;4.45;2.00;;;;;;;;;;5112237;27;20462;-72
2022/07/17 07:45:36;;;;;;;6.03;2.00;;;;;;;;;;5111368;28;20467;-72
2022/07/17 07:48:02;;;;;;;5.32;1.65;;;;;;;;;;5110927;28;20411;-72
2022/07/17 07:50:28;;;;;;;5.32;2.22;;;;;;;;;;5111307;28;20024;-72
2022/07/17 07:52:54;;;;;;;5.20;2.47;;;;;;;;;;5111228;28;20081;-73
2022/07/17 07:55:21;;;;;;;3.15;1.80;;;;;;;;;;5110872;28;20506;-73
2022/07/17 07:57:48;;;;;;;4.35;2.00;;;;;;;;;;5111141;28;20027;-73
2022/07/17 08:00:14;;;;;;;3.97;1.65;;;;;;;;;;5110669;28;20020;-72
2022/07/17 08:02:41;;;;;;;7.25;1.80;;;;;;;;;;5110917;28;20028;-72
2022/07/17 08:05:07;;;;;;;3.17;1.33;;;;;;;;;;5110928;28;20050;-72
2022/07/17 08:07:34;;;;;;;3.13;1.88;;;;;;;;;;5109210;28;20080;-71
2022/07/17 08:10:01;;;;;;;5.53;1.80;;;;;;;;;;5110886;28;20020;-71
2022/07/17 08:12:27;;;;;;;3.92;1.70;;;;;;;;;;5110717;28;20020;-72
2022/07/17 08:14:53;;;;;;;8.40;2.90;;;;;;;;;;5110640;28;20027;-72
2022/07/17 08:17:20;;;;;;;4.38;1.95;;;;;;;;;;5110722;28;20095;-72
2022/07/17 08:19:46;;;;;;;3.63;2.10;;;;;;;;;;5110742;28;20016;-72
2022/07/17 08:22:12;;;;;;;4.38;1.80;;;;;;;;;;5110177;28;20577;-73
2022/07/17 08:24:39;;;;;;;4.18;2.08;;;;;;;;;;5110563;28;20020;-72
2022/07/17 08:27:05;;;;;;;4.03;2.05;;;;;;;;;;5110789;28;20024;-72
2022/07/17 08:29:31;;;;;;;5.95;2.50;;;;;;;;;;5108660;28;20471;-72
2022/07/17 08:31:57;;;;;;;4.45;2.10;;;;;;;;;;5109159;28;20034;-72
2022/07/17 08:34:24;;;;;;;7.30;2.05;;;;;;;;;;5109249;28;20024;-73
2022/07/17 08:36:50;;;;;;;4.35;2.28;;;;;;;;;;5108618;28;20487;-73
2022/07/17 08:39:17;;;;;;;6.30;2.50;;;;;;;;;;5109006;28;20032;-74
2022/07/17 08:41:44;;;;;;;12.07;2.97;;;;;;;;;;5110124;28;20048;-74
2022/07/17 08:44:10;;;;;;;4.75;2.30;;;;;;;;;;5109770;28;20080;-74
2022/07/17 08:46:37;;;;;;;3.78;1.73;;;;;;;;;;5110212;28;20035;-71
2022/07/17 08:49:03;;;;;;;3.60;1.90;;;;;;;;;;5110490;28;20018;-72
2022/07/17 08:51:30;;;;;;;6.65;2.17;;;;;;;;;;5109627;28;20503;-73
2022/07/17 08:53:56;;;;;;;5.38;2.38;;;;;;;;;;5099690;28;20026;-72
2022/07/17 08:56:22;;;;;;;4.55;1.90;;;;;;;;;;5096145;28;20502;-73
2022/07/17 08:58:49;;;;;;;4.38;1.77;;;;;;;;;;5096446;28;20028;-72
2022/07/17 09:01:16;;;;;;;4.90;2.33;;;;;;;;;;5096452;28;20028;-72
2022/07/17 09:03:42;;;;;;;5.97;1.60;;;;;;;;;;5094643;28;20055;-72
2022/07/17 09:06:20;;;;;;;4.75;1.70;;;;;;;;;;5094900;28;20027;-72
2022/07/17 09:08:46;;;;;;;5.13;1.95;;;;;;;;;;5096341;28;20028;-72
2022/07/17 09:11:13;;;;;;;3.22;1.77;;;;;;;;;;5094422;28;20082;-73
2022/07/17 09:13:42;;;;;;;3.80;1.67;;;;;;;;;;5096035;28;20049;-73
2022/07/17 09:16:13;;;;;;;2.20;1.33;;;;;;;;;;5094864;28;20484;-72
2022/07/17 09:18:43;;;;;;;5.55;1.95;;;;;;;;;;5095724;28;20028;-74
2022/07/17 09:21:17;;;;;;;3.75;1.60;;;;;;;;;;5095910;28;20028;-73
2022/07/17 09:23:43;;;;;;;2.85;1.63;;;;;;;;;;5094676;28;20050;-73
2022/07/17 09:26:09;;;;;;;2.85;1.88;;;;;;;;;;5095523;28;20020;-73
2022/07/17 09:28:45;;;;;;;3.85;1.80;;;;;;;;;;5095925;28;20051;-73
2022/07/17 09:31:11;;;;;;;2.47;1.45;;;;;;;;;;5096084;28;20035;-73
2022/07/17 09:33:37;;;;;;;3.28;1.70;;;;;;;;;;5095396;28;20020;-73
2022/07/17 09:36:12;;;;;;;3.47;1.98;;;;;;;;;;5095671;28;20020;-74
2022/07/17 09:38:43;;;;;;;2.83;1.70;;;;;;;;;;5095407;28;20349;-73
2022/07/17 09:41:11;;;;;;;4.32;2.25;;;;;;;;;;5095769;28;20118;-74
2022/07/17 09:43:44;;;;;;;4.30;1.85;;;;;;;;;;5096016;28;20020;-74
2022/07/17 09:46:15;;;;;;;5.38;1.60;;;;;;;;;;5093864;28;20031;-74
2022/07/17 09:48:47;;;;;;;4.40;2.08;;;;;;;;;;5095414;28;20024;-74
2022/07/17 09:51:14;;;;;;;13.53;2.40;;;;;;;;;;5095724;28;20023;-73
2022/07/17 09:53:40;;;;;;;2.75;1.63;;;;;;;;;;5093621;28;20476;-72
2022/07/17 09:56:07;;;;;;;5.53;1.92;;;;;;;;;;5095226;28;20039;-72
2022/07/17 09:58:34;;;;;;;3.38;1.88;;;;;;;;;;5095565;28;20089;-72
2022/07/17 10:01:00;;;;;;;4.10;1.90;;;;;;;;;;5093451;28;20028;-72
2022/07/17 10:03:27;;;;;;;3.17;1.60;;;;;;;;;;5095120;28;20020;-72
2022/07/17 10:05:53;;;;;;;3.42;1.60;;;;;;;;;;5094075;28;20507;-72
2022/07/17 10:08:19;;;;;;;5.53;2.00;;;;;;;;;;5094638;28;20035;-73
2022/07/17 10:10:45;;;;;;;3.25;1.50;;;;;;;;;;5093770;28;20106;-72
2022/07/17 10:13:12;;;;;;;3.20;1.60;;;;;;;;;;5093741;28;20447;-73
2022/07/17 10:15:39;;;;;;;3.30;1.65;;;;;;;;;;5093262;28;20027;-73
2022/07/17 10:18:08;;;;;;;3.22;1.83;;;;;;;;;;5094866;28;20028;-73
2022/07/17 10:20:34;;;;;;;4.47;1.65;;;;;;;;;;5094812;28;20023;-73
2022/07/17 10:23:00;;;;;;;3.50;1.50;;;;;;;;;;5094373;28;20039;-73
2022/07/17 10:25:26;;;;;;;3.35;1.85;;;;;;;;;;5093791;28;20055;-73
2022/07/17 10:27:53;;;;;;;2.25;1.67;;;;;;;;;;5094246;28;20099;-73
2022/07/17 10:30:29;;;;;;;3.65;1.65;;;;;;;;;;5094729;28;20403;-73
2022/07/17 10:32:58;;;;;;;3.55;1.80;;;;;;;;;;5094592;28;20016;-73
2022/07/17 10:35:24;;;;;;;3.10;1.63;;;;;;;;;;5094346;28;20023;-73
2022/07/17 10:37:51;;;;;;;3.70;1.70;;;;;;;;;;5094483;28;20024;-73
2022/07/17 10:40:21;;;;;;;4.53;2.25;;;;;;;;;;5094497;28;20024;-73
2022/07/17 10:42:58;;;;;;;2.78;1.80;;;;;;;;;;5093803;28;20051;-73
2022/07/17 10:45:24;;;;;;;9.43;1.90;;;;;;;;;;5094422;28;20526;-73
2022/07/17 10:47:58;;;;;;;4.32;2.00;;;;;;;;;;5093232;28;20100;-73
2022/07/17 10:50:26;;;;;;;3.63;1.50;;;;;;;;;;5093903;28;20020;-73
2022/07/17 10:53:06;;;;;;;2.92;1.58;;;;;;;;;;5094207;28;20099;-73
2022/07/17 10:55:33;;;;;;;6.97;1.52;;;;;;;;;;5094780;28;20524;-73
2022/07/17 10:57:59;;;;;;;2.75;1.60;;;;;;;;;;5092757;28;20032;-73
2022/07/17 11:00:26;;;;;;;4.50;2.13;;;;;;;;;;5092758;28;20555;-73
2022/07/17 11:02:52;;;;;;;4.25;1.40;;;;;;;;;;5092818;28;20047;-73
2022/07/17 11:05:18;;;;;;;3.55;1.65;;;;;;;;;;5092402;28;20380;-73
2022/07/17 11:08:00;;;;;;;3.00;1.60;;;;;;;;;;5092712;28;20028;-73
2022/07/17 11:10:27;;;;;;;3.50;1.57;;;;;;;;;;5093629;28;20038;-73
2022/07/17 11:13:07;;;;;;;2.60;1.58;;;;;;;;;;5092635;28;20058;-73
2022/07/17 11:15:41;;;;;;;4.95;1.90;;;;;;;;;;5093904;28;20089;-73
2022/07/17 11:18:11;;;;;;;3.92;1.98;;;;;;;;;;5092106;28;20541;-73
2022/07/17 11:20:46;;;;;;;3.40;1.65;;;;;;;;;;5093883;28;20480;-73
2022/07/17 11:23:12;;;;;;;3.90;1.67;;;;;;;;;;5093760;28;20503;-73
2022/07/17 11:25:39;;;;;;;2.28;1.40;;;;;;;;;;5092082;28;20415;-73
2022/07/17 11:28:05;;;;;;;2.35;1.55;;;;;;;;;;5093719;28;20099;-73
2022/07/17 11:30:31;;;;;;;2.40;1.58;;;;;;;;;;5093713;28;20017;-73
2022/07/17 11:32:58;;;;;;;3.45;1.48;;;;;;;;;;5093244;28;20468;-73
2022/07/17 11:35:25;;;;;;;3.08;1.63;;;;;;;;;;5092300;28;20036;-73
2022/07/17 11:37:51;;;;;;;4.05;1.98;;;;;;;;;;5092337;28;20357;-72
2022/07/17 11:40:17;;;;;;;3.45;1.60;;;;;;;;;;5093113;28;20036;-72
2022/07/17 11:42:44;;;;;;;2.40;1.40;;;;;;;;;;5092046;28;20048;-73
2022/07/17 11:45:10;;;;;;;3.53;2.00;;;;;;;;;;5093132;28;20475;-73
2022/07/17 11:47:37;;;;;;;3.00;1.63;;;;;;;;;;5093549;28;20103;-72
2022/07/17 11:50:06;;;;;;;2.88;1.80;;;;;;;;;;5093536;28;20028;-73
2022/07/17 11:52:40;;;;;;;4.03;2.00;;;;;;;;;;5093052;28;20024;-73
2022/07/17 11:55:06;;;;;;;5.15;2.00;;;;;;;;;;5093119;28;20103;-72
2022/07/17 11:57:41;;;;;;;6.10;1.80;;;;;;;;;;5093538;28;20154;-73
2022/07/17 12:00:08;;;;;;;2.95;1.52;;;;;;;;;;5092986;28;20016;-73
2022/07/17 12:02:34;;;;;;;2.80;1.70;;;;;;;;;;5093330;28;20036;-73
2022/07/17 12:05:01;;;;;;;3.88;1.70;;;;;;;;;;5093350;28;20052;-72
2022/07/17 12:07:38;;;;;;;4.18;1.90;;;;;;;;;;5092915;28;20103;-72
2022/07/17 12:10:15;;;;;;;4.15;1.70;;;;;;;;;;5093359;28;20444;-73
2022/07/17 12:12:52;;;;;;;5.13;2.10;;;;;;;;;;5093246;28;20027;-73
2022/07/17 12:15:18;;;;;;;3.05;1.70;;;;;;;;;;5092929;28;20020;-73
2022/07/17 12:17:44;;;;;;;2.95;1.75;;;;;;;;;;5093452;28;20078;-73
2022/07/17 12:20:10;;;;;;;3.05;1.50;;;;;;;;;;5093968;28;20032;-74
2022/07/17 12:22:46;;;;;;;4.13;1.70;;;;;;;;;;5092981;28;20028;-73
2022/07/17 12:25:25;;;;;;;3.00;1.63;;;;;;;;;;5093202;28;20453;-73
2022/07/17 12:27:52;;;;;;;5.75;1.70;;;;;;;;;;5093097;28;20483;-71
2022/07/17 12:30:18;;;;;;;4.13;2.15;;;;;;;;;;5095632;28;20024;-74
2022/07/17 12:32:44;;;;;;;2.90;1.70;;;;;;;;;;5095623;28;20042;-74
2022/07/17 12:35:10;;;;;;;6.28;3.13;;;;;;;;;;5096595;28;20024;-73
2022/07/17 12:37:36;;;;;;;5.22;2.35;;;;;;;;;;5096876;28;20436;-73
2022/07/17 12:40:04;;;;;;;3.15;1.70;;;;;;;;;;5096733;28;20044;-75
2022/07/17 12:42:30;;;;;;;3.45;1.70;;;;;;;;;;5096222;28;20114;-73
2022/07/17 12:44:56;;;;;;;7.63;1.85;;;;;;;;;;5096641;28;20016;-73
2022/07/17 12:47:22;;;;;;;3.03;1.70;;;;;;;;;;5096854;28;20475;-73
2022/07/17 12:49:49;;;;;;;3.40;2.08;;;;;;;;;;5096185;28;20426;-73
2022/07/17 12:52:15;;;;;;;4.15;1.50;;;;;;;;;;5095243;28;20028;-74
2022/07/17 12:54:41;;;;;;;2.45;1.65;;;;;;;;;;5096645;28;20089;-72
2022/07/17 12:57:07;;;;;;;5.07;1.48;;;;;;;;;;5096098;28;20095;-72
2022/07/17 12:59:34;;;;;;;2.42;1.38;;;;;;;;;;5096427;28;20506;-74
2022/07/17 13:02:00;;;;;;;2.78;1.70;;;;;;;;;;5095060;28;20484;-73
2022/07/17 13:04:27;;;;;;;2.53;1.45;;;;;;;;;;5095931;28;20050;-73
2022/07/17 13:06:53;;;;;;;3.50;1.67;;;;;;;;;;5096430;28;20053;-72
2022/07/17 13:09:19;;;;;;;4.00;1.85;;;;;;;;;;5096216;28;20020;-72
2022/07/17 13:11:45;;;;;;;2.28;1.35;;;;;;;;;;5095780;28;20509;-73
2022/07/17 13:14:11;;;;;;;4.00;1.85;;;;;;;;;;5096122;28;20456;-72
2022/07/17 13:16:41;;;;;;;2.45;1.60;;;;;;;;;;5095649;28;20020;-73
2022/07/17 13:19:08;;;;;;;3.88;2.15;;;;;;;;;;5094697;28;20407;-73
2022/07/17 13:21:34;;;;;;;4.30;1.83;;;;;;;;;;5095804;28;20047;-72
2022/07/17 13:24:01;;;;;;;3.42;1.70;;;;;;;;;;5094232;28;20403;-73
2022/07/17 13:26:27;;;;;;;3.03;1.70;;;;;;;;;;5094597;28;20499;-73
2022/07/17 13:28:53;;;;;;;4.13;1.85;;;;;;;;;;5095840;28;20099;-73
2022/07/17 13:31:20;;;;;;;4.32;1.63;;;;;;;;;;5095391;28;20052;-73
2022/07/17 13:33:46;;;;;;;2.17;1.60;;;;;;;;;;5095837;28;20020;-73
2022/07/17 13:36:12;;;;;;;3.78;1.92;;;;;;;;;;5095783;28;20365;-72
2022/07/17 13:38:38;;;;;;;2.67;1.75;;;;;;;;;;5093858;28;20062;-72
2022/07/17 13:41:05;;;;;;;4.28;1.90;;;;;;;;;;5094022;28;20040;-72
2022/07/17 13:43:31;;;;;;;6.50;2.13;;;;;;;;;;5094274;28;20039;-72
2022/07/17 13:45:57;;;;;;;3.50;1.80;;;;;;;;;;5095151;28;20020;-73
2022/07/17 13:48:24;;;;;;;3.35;2.20;;;;;;;;;;5095389;28;20099;-71
2022/07/17 13:50:50;;;;;;;3.03;1.83;;;;;;;;;;5095636;28;20105;-73
2022/07/17 13:53:16;;;;;;;3.53;1.85;;;;;;;;;;5095008;28;20020;-74
2022/07/17 13:55:42;;;;;;;2.47;1.60;;;;;;;;;;5095305;28;20103;-73
2022/07/17 13:58:09;;;;;;;3.83;1.52;;;;;;;;;;5095315;28;20056;-73
2022/07/17 14:00:35;;;;;;;2.95;1.80;;;;;;;;;;5094765;28;20028;-72
2022/07/17 14:03:01;;;;;;;2.30;1.83;;;;;;;;;;5095113;28;20107;-72
2022/07/17 14:05:27;;;;;;;2.47;1.63;;;;;;;;;;5093848;28;20028;-72
2022/07/17 14:07:54;;;;;;;4.38;2.17;;;;;;;;;;5094811;28;20324;-73
2022/07/17 14:10:20;;;;;;;2.25;1.70;;;;;;;;;;5093762;28;20422;-72
2022/07/17 14:12:46;;;;;;;3.25;1.60;;;;;;;;;;5093753;28;20048;-74
2022/07/17 14:15:12;;;;;;;3.75;1.70;;;;;;;;;;5094527;28;20456;-73
2022/07/17 14:17:39;;;;;;;3.45;2.00;;;;;;;;;;5095139;28;20032;-74
2022/07/17 14:20:05;;;;;;;5.38;2.58;;;;;;;;;;5094642;28;20531;-74
2022/07/17 14:22:31;;;;;;;2.78;1.77;;;;;;;;;;5094749;28;20036;-72
2022/07/17 14:24:58;;;;;;;3.92;2.35;;;;;;;;;;5094702;28;20529;-71
2022/07/17 14:27:24;;;;;;;3.47;1.98;;;;;;;;;;5094380;28;20126;-72
2022/07/17 14:29:50;;;;;;;2.60;1.50;;;;;;;;;;5094907;28;20043;-72
2022/07/17 14:32:16;;;;;;;2.55;1.83;;;;;;;;;;5095122;28;20039;-72
2022/07/17 14:34:42;;;;;;;3.80;2.20;;;;;;;;;;5092902;28;20017;-73
2022/07/17 14:37:08;;;;;;;3.05;1.70;;;;;;;;;;5094454;28;20035;-72
2022/07/17 14:39:35;;;;;;;4.80;2.17;;;;;;;;;;5093226;28;20020;-72
2022/07/17 14:42:02;;;;;;;2.58;1.90;;;;;;;;;;5093940;28;20123;-72
2022/07/17 14:44:30;;;;;;;5.07;2.30;;;;;;;;;;5093153;28;20048;-72
2022/07/17 14:46:57;;;;;;;2.88;1.55;;;;;;;;;;5094684;28;20020;-72
2022/07/17 14:49:23;;;;;;;6.78;2.10;;;;;;;;;;5094181;28;20076;-73
2022/07/17 14:51:49;;;;;;;3.03;2.08;;;;;;;;;;5093884;28;20430;-72
2022/07/17 14:54:15;;;;;;;4.68;2.17;;;;;;;;;;5094408;28;20027;-73
2022/07/17 14:56:41;;;;;;;3.35;2.10;;;;;;;;;;5093753;28;20139;-72
2022/07/17 14:59:07;;;;;;;2.85;1.88;;;;;;;;;;5094146;28;20495;-72
2022/07/17 15:01:34;;;;;;;2.72;1.63;;;;;;;;;;5094044;28;20034;-72
2022/07/17 15:04:00;;;;;;;2.35;1.75;;;;;;;;;;5092360;28;20031;-72
2022/07/17 15:06:26;;;;;;;5.03;2.28;;;;;;;;;;5093991;28;20016;-72
2022/07/17 15:08:52;;;;;;;3.15;1.90;;;;;;;;;;5094009;28;20020;-72
2022/07/17 15:11:18;;;;;;;3.03;1.50;;;;;;;;;;5093628;28;20103;-72
2022/07/17 15:13:45;;;;;;;4.30;1.75;;;;;;;;;;5093879;28;20055;-72
2022/07/17 15:16:11;;;;;;;3.22;1.77;;;;;;;;;;5093563;28;20064;-72
2022/07/17 15:18:37;;;;;;;6.13;2.65;;;;;;;;;;5092609;28;20537;-72
2022/07/17 15:21:03;;;;;;;4.40;1.90;;;;;;;;;;5093680;28;20028;-72
2022/07/17 15:23:29;;;;;;;4.07;2.15;;;;;;;;;;5093351;28;20024;-73
2022/07/17 15:25:56;;;;;;;3.40;1.80;;;;;;;;;;5093746;28;20020;-73
2022/07/17 15:28:22;;;;;;;3.63;2.03;;;;;;;;;;5092384;28;20385;-73
2022/07/17 15:30:48;;;;;;;3.00;1.50;;;;;;;;;;5092118;28;20021;-73
2022/07/17 15:33:14;;;;;;;4.05;2.15;;;;;;;;;;5092346;28;20024;-73
2022/07/17 15:35:40;;;;;;;5.18;2.08;;;;;;;;;;5093652;28;20495;-74
2022/07/17 15:38:07;;;;;;;4.32;1.90;;;;;;;;;;5093229;28;20020;-74
2022/07/17 15:40:33;;;;;;;3.40;1.60;;;;;;;;;;5093682;28;20024;-73
2022/07/17 15:42:59;;;;;;;5.22;2.15;;;;;;;;;;5093336;28;20055;-73
2022/07/17 15:45:25;;;;;;;3.30;1.95;;;;;;;;;;5093042;28;20020;-73
2022/07/17 15:47:51;;;;;;;3.20;1.90;;;;;;;;;;5093505;28;20024;-73
2022/07/17 15:50:17;;;;;;;3.65;2.08;;;;;;;;;;5093640;28;20038;-73
2022/07/17 15:52:44;;;;;;;4.93;1.88;;;;;;;;;;5093173;28;20359;-73
2022/07/17 15:55:10;;;;;;;4.15;2.15;;;;;;;;;;5092179;28;20471;-73